Time;durP1;ratioP1;P1;durP2;ratioP2;P2;SDS_P1;SDS_P2;PMS_P1;PMS_P2;Temp;Humidity;BMP_temperature;BMP_pressure;BME280_temperature;BME280_humidity;BME280_pressure;Samples;Min_cycle;Max_cycle;Signal;HPM_P1;HPM_P2
2023/12/20 00:00:43;;;;;;;4.57;3.60;;;5.50;1.00;;;;;;7376501;19;20111;-69
2023/12/20 00:03:13;;;;;;;9.13;4.05;;;5.60;1.00;;;;;;7376681;19;20075;-68
2023/12/20 00:05:43;;;;;;;4.63;3.15;;;5.50;1.00;;;;;;7376626;19;20018;-68
2023/12/20 00:08:16;;;;;;;3.38;3.00;;;5.50;1.00;;;;;;7376763;19;20014;-68
2023/12/20 00:10:46;;;;;;;4.32;3.22;;;5.50;1.00;;;;;;7377149;19;20013;-69
2023/12/20 00:13:17;;;;;;;5.40;3.20;;;5.50;1.00;;;;;;7376159;19;20022;-69
2023/12/20 00:15:47;;;;;;;5.07;3.28;;;5.50;1.00;;;;;;7376882;19;20012;-69
2023/12/20 00:18:17;;;;;;;4.53;3.67;;;5.40;1.30;;;;;;7376117;19;20417;-69
2023/12/20 00:20:47;;;;;;;4.90;4.00;;;5.40;7.60;;;;;;7375453;19;20366;-70
2023/12/20 00:23:19;;;;;;;5.47;4.05;;;5.40;18.20;;;;;;7377109;19;20483;-69
2023/12/20 00:25:49;;;;;;;9.82;3.42;;;5.40;26.20;;;;;;7376518;19;20464;-69
2023/12/20 00:28:19;;;;;;;5.40;4.10;;;5.40;33.90;;;;;;7375620;19;20015;-69
2023/12/20 00:30:49;;;;;;;6.43;3.75;;;5.40;57.60;;;;;;7377108;19;20022;-70
2023/12/20 00:33:19;;;;;;;7.15;3.80;;;5.40;67.70;;;;;;7376482;19;20006;-70
2023/12/20 00:35:50;;;;;;;5.35;4.40;;;5.40;71.30;;;;;;7376628;19;20014;-68
2023/12/20 00:38:23;;;;;;;7.00;4.47;;;5.40;90.70;;;;;;7375094;19;20015;-69
2023/12/20 00:40:53;;;;;;;6.57;4.55;;;5.30;99.90;;;;;;7376879;19;20007;-69
2023/12/20 00:43:23;;;;;;;9.75;4.43;;;5.30;99.90;;;;;;7376309;19;20015;-69
2023/12/20 00:45:53;;;;;;;6.00;4.05;;;5.30;99.90;;;;;;7376210;19;20520;-69
2023/12/20 00:48:23;;;;;;;13.23;5.90;;;5.20;99.90;;;;;;7378238;19;20013;-69
2023/12/20 00:50:53;;;;;;;7.07;3.88;;;5.20;99.90;;;;;;7377247;19;20082;-70
2023/12/20 00:53:26;;;;;;;4.75;3.63;;;5.20;99.90;;;;;;7376745;19;20002;-70
2023/12/20 00:55:58;;;;;;;4.03;3.33;;;5.20;99.90;;;;;;7375873;19;20028;-69
2023/12/20 00:58:29;;;;;;;5.05;4.03;;;5.30;99.90;;;;;;7375658;19;20006;-69
2023/12/20 01:00:59;;;;;;;6.05;4.20;;;5.20;99.90;;;;;;7374413;19;20018;-69
2023/12/20 01:03:29;;;;;;;5.70;4.30;;;5.20;99.90;;;;;;7374295;19;20028;-70
2023/12/20 01:05:59;;;;;;;6.97;4.63;;;5.20;99.90;;;;;;7375196;19;20070;-69
2023/12/20 01:08:31;;;;;;;5.20;4.25;;;5.10;99.90;;;;;;7381296;19;20018;-70
2023/12/20 01:11:01;;;;;;;5.82;4.75;;;5.10;99.90;;;;;;7382504;19;20006;-70
2023/12/20 01:13:31;;;;;;;6.85;4.43;;;5.10;99.90;;;;;;7381727;19;20011;-70
2023/12/20 01:16:05;;;;;;;4.43;3.92;;;5.10;99.90;;;;;;7379134;19;20037;-69
2023/12/20 01:18:35;;;;;;;6.03;4.30;;;5.10;99.90;;;;;;7381063;19;20018;-69
2023/12/20 01:21:06;;;;;;;8.25;4.20;;;5.20;99.90;;;;;;7381435;19;20401;-69
2023/12/20 01:23:39;;;;;;;5.45;4.47;;;5.20;99.90;;;;;;7381197;19;20464;-69
2023/12/20 01:26:09;;;;;;;6.65;4.50;;;5.20;99.90;;;;;;7380877;19;20021;-69
2023/12/20 01:28:39;;;;;;;5.63;5.03;;;5.20;99.90;;;;;;7381273;19;20049;-69
2023/12/20 01:31:09;;;;;;;7.60;5.88;;;5.20;99.90;;;;;;7380422;19;20040;-69
2023/12/20 01:33:40;;;;;;;9.32;6.60;;;5.10;99.90;;;;;;7380616;19;20010;-69
2023/12/20 01:36:11;;;;;;;11.40;6.68;;;5.10;99.90;;;;;;7382573;19;20517;-69
2023/12/20 01:38:44;;;;;;;8.15;6.15;;;5.10;99.90;;;;;;7381089;19;20018;-69
2023/12/20 01:41:14;;;;;;;6.85;5.55;;;5.10;99.90;;;;;;7380688;19;20379;-68
2023/12/20 01:43:44;;;;;;;6.20;5.55;;;5.10;99.90;;;;;;7381930;19;20018;-69
2023/12/20 01:46:21;;;;;;;7.50;5.53;;;5.10;99.90;;;;;;7376157;19;20089;-69
2023/12/20 01:48:52;;;;;;;7.18;5.95;;;5.10;99.90;;;;;;7382232;19;20007;-69
2023/12/20 01:51:23;;;;;;;8.60;6.28;;;5.00;99.90;;;;;;7382845;19;20006;-70
2023/12/20 01:53:57;;;;;;;6.75;6.05;;;5.00;99.90;;;;;;7381397;19;20007;-70
2023/12/20 01:56:28;;;;;;;;;;;5.10;99.90;;;;;;7381482;19;20094;-69
2023/12/20 01:58:59;;;;;;;8.38;6.05;;;5.00;99.90;;;;;;7380883;19;19911;-68
2023/12/20 02:01:29;;;;;;;8.50;6.80;;;5.00;99.90;;;;;;7381457;19;20006;-70
2023/12/20 02:03:59;;;;;;;12.52;6.72;;;5.00;99.90;;;;;;7380975;19;20407;-69
2023/12/20 02:06:32;;;;;;;7.35;5.80;;;5.10;99.90;;;;;;7381039;19;20083;-67
2023/12/20 02:09:05;;;;;;;9.68;6.20;;;5.10;99.90;;;;;;7380485;19;20006;-69
2023/12/20 02:11:36;;;;;;;6.65;5.45;;;5.20;99.90;;;;;;7381000;19;20014;-68
2023/12/20 02:14:06;;;;;;;6.30;5.30;;;5.20;99.90;;;;;;7380965;19;20836;-68
2023/12/20 02:16:36;;;;;;;7.75;5.43;;;5.30;99.90;;;;;;7381319;19;20021;-68
2023/12/20 02:19:09;;;;;;;6.35;5.47;;;5.30;99.90;;;;;;7378747;19;20047;-69
2023/12/20 02:21:42;;;;;;;4.70;4.13;;;5.30;99.90;;;;;;7381389;19;20034;-68
2023/12/20 02:24:12;;;;;;;4.22;3.67;;;5.40;99.90;;;;;;7382349;19;20036;-68
2023/12/20 02:26:43;;;;;;;5.22;3.97;;;5.50;99.90;;;;;;7382231;19;20010;-69
2023/12/20 02:29:16;;;;;;;4.13;3.45;;;5.50;99.90;;;;;;7377892;19;20499;-68
2023/12/20 02:31:45;;;;;;;3.83;3.30;;;5.60;99.90;;;;;;7382119;19;20496;-68
2023/12/20 02:34:15;;;;;;;3.72;3.05;;;5.60;99.90;;;;;;7381839;19;20015;-68
2023/12/20 02:36:48;;;;;;;3.20;2.88;;;5.60;99.90;;;;;;7382034;19;20017;-69
2023/12/20 02:39:18;;;;;;;3.92;3.22;;;5.60;99.90;;;;;;7379706;19;20025;-69
2023/12/20 02:41:48;;;;;;;2.42;2.00;;;5.60;99.90;;;;;;7379357;19;20011;-69
2023/12/20 02:44:18;;;;;;;2.92;1.88;;;5.70;99.90;;;;;;7379934;19;20014;-69
2023/12/20 02:46:48;;;;;;;1.98;1.70;;;5.70;99.90;;;;;;7380168;19;20002;-68
2023/12/20 02:49:18;;;;;;;1.80;1.35;;;5.70;99.90;;;;;;7379488;19;20086;-69
2023/12/20 02:51:51;;;;;;;1.60;1.50;;;5.70;99.90;;;;;;7379459;19;20006;-69
2023/12/20 02:54:21;;;;;;;1.75;1.38;;;5.70;99.90;;;;;;7380553;19;20027;-69
2023/12/20 02:56:52;;;;;;;1.35;0.90;;;5.70;99.90;;;;;;7380708;19;20010;-69
2023/12/20 02:59:22;;;;;;;1.00;0.90;;;5.70;99.90;;;;;;7381376;19;20360;-69
2023/12/20 03:01:52;;;;;;;1.58;1.17;;;5.70;99.90;;;;;;7380819;19;20010;-69
2023/12/20 03:04:22;;;;;;;1.25;0.90;;;5.70;99.90;;;;;;7379990;19;20562;-69
2023/12/20 03:06:55;;;;;;;1.40;1.10;;;5.70;99.90;;;;;;7381019;19;20031;-68
2023/12/20 03:09:25;;;;;;;1.77;0.90;;;5.60;99.90;;;;;;7380294;19;20035;-69
2023/12/20 03:11:55;;;;;;;1.27;0.70;;;5.60;99.90;;;;;;7381165;19;20032;-69
2023/12/20 03:14:25;;;;;;;0.80;0.70;;;5.60;99.90;;;;;;7379213;19;20011;-69
2023/12/20 03:16:59;;;;;;;1.33;0.77;;;5.60;99.90;;;;;;7379588;19;20006;-69
2023/12/20 03:19:29;;;;;;;1.05;0.82;;;5.60;99.90;;;;;;7381126;19;20026;-69
2023/12/20 03:22:02;;;;;;;1.05;0.80;;;5.50;99.90;;;;;;7381304;19;20105;-69
2023/12/20 03:24:32;;;;;;;1.15;0.90;;;5.50;99.90;;;;;;7378906;19;20023;-69
2023/12/20 03:27:02;;;;;;;1.02;0.85;;;5.50;99.90;;;;;;7378048;19;20007;-69
2023/12/20 03:29:32;;;;;;;1.50;0.80;;;5.50;99.90;;;;;;7379479;19;20014;-69
2023/12/20 03:32:02;;;;;;;1.58;0.88;;;5.50;99.90;;;;;;7377302;19;20010;-69
2023/12/20 03:34:32;;;;;;;1.98;0.90;;;5.50;99.90;;;;;;7378385;19;20007;-69
2023/12/20 03:37:05;;;;;;;1.17;0.90;;;5.50;99.90;;;;;;7379360;19;20017;-69
2023/12/20 03:39:35;;;;;;;1.50;1.13;;;5.50;99.90;;;;;;7376933;19;20017;-69
2023/12/20 03:42:05;;;;;;;1.48;0.90;;;5.40;99.90;;;;;;7378907;19;20007;-68
2023/12/20 03:44:35;;;;;;;1.13;0.82;;;5.40;99.90;;;;;;7378356;19;20011;-68
2023/12/20 03:47:06;;;;;;;0.90;0.80;;;5.40;99.90;;;;;;7377991;19;20035;-69
2023/12/20 03:49:36;;;;;;;1.30;0.98;;;5.40;99.90;;;;;;7379329;19;20832;-69
2023/12/20 03:52:10;;;;;;;1.02;0.90;;;5.40;99.90;;;;;;7378365;19;20020;-69
2023/12/20 03:54:42;;;;;;;1.40;0.90;;;5.40;99.90;;;;;;7378749;19;20486;-69
2023/12/20 03:57:12;;;;;;;4.63;1.52;;;5.40;99.90;;;;;;7377706;19;20015;-69
2023/12/20 03:59:42;;;;;;;0.70;0.70;;;5.40;99.90;;;;;;7377510;19;20011;-69
2023/12/20 04:02:12;;;;;;;2.13;0.85;;;5.40;99.90;;;;;;7374987;19;20018;-70
2023/12/20 04:04:42;;;;;;;0.80;0.80;;;5.30;99.90;;;;;;7377277;19;20019;-69
2023/12/20 04:07:14;;;;;;;1.42;0.80;;;5.30;99.90;;;;;;7378391;19;20144;-66
2023/12/20 04:09:45;;;;;;;1.33;0.90;;;5.30;99.90;;;;;;7377933;19;20385;-68
2023/12/20 04:12:15;;;;;;;0.85;0.80;;;5.30;99.90;;;;;;7377819;19;20106;-68
2023/12/20 04:14:45;;;;;;;1.30;0.90;;;5.30;99.90;;;;;;7378383;19;20082;-69
2023/12/20 04:17:16;;;;;;;0.85;0.75;;;5.30;99.90;;;;;;7377888;19;20014;-69
2023/12/20 04:19:46;;;;;;;1.52;1.00;;;5.30;99.90;;;;;;7378485;19;20010;-69
2023/12/20 04:22:20;;;;;;;1.02;0.85;;;5.30;99.90;;;;;;7377256;19;20018;-69
2023/12/20 04:24:50;;;;;;;1.23;1.10;;;5.20;99.90;;;;;;7377722;19;20006;-68
2023/12/20 04:27:20;;;;;;;1.98;1.27;;;5.20;99.90;;;;;;7378201;19;20022;-68
2023/12/20 04:29:50;;;;;;;1.40;1.20;;;5.20;99.90;;;;;;7379724;19;20010;-68
2023/12/20 04:32:20;;;;;;;1.13;0.90;;;5.20;99.90;;;;;;7375260;19;20014;-68
2023/12/20 04:34:50;;;;;;;2.67;1.10;;;5.20;99.90;;;;;;7378717;19;20007;-68
2023/12/20 04:37:23;;;;;;;1.08;0.98;;;5.20;99.90;;;;;;7376564;19;20090;-68
2023/12/20 04:39:53;;;;;;;1.23;0.88;;;5.20;99.90;;;;;;7373222;19;20007;-68
2023/12/20 04:42:23;;;;;;;1.15;0.90;;;5.30;99.90;;;;;;7375040;19;20132;-67
2023/12/20 04:44:53;;;;;;;1.13;1.02;;;5.20;99.90;;;;;;7373629;19;20031;-68
2023/12/20 04:47:23;;;;;;;1.75;1.17;;;5.20;99.90;;;;;;7375621;19;20354;-68
2023/12/20 04:49:53;;;;;;;3.90;1.20;;;5.20;99.90;;;;;;7375414;19;20077;-69
2023/12/20 04:52:26;;;;;;;1.15;0.85;;;5.20;99.90;;;;;;7377259;19;20024;-69
2023/12/20 04:54:56;;;;;;;0.82;0.70;;;5.20;99.90;;;;;;7375838;19;20006;-67
2023/12/20 04:57:26;;;;;;;1.25;0.90;;;5.30;99.90;;;;;;7372672;19;20010;-69
2023/12/20 04:59:56;;;;;;;1.45;0.93;;;5.30;99.90;;;;;;7374996;19;20007;-69
2023/12/20 05:02:26;;;;;;;1.60;1.20;;;5.30;99.90;;;;;;7376944;19;20002;-69
2023/12/20 05:04:56;;;;;;;1.83;1.27;;;5.30;99.90;;;;;;7375715;19;20015;-69
2023/12/20 05:07:28;;;;;;;1.15;0.88;;;5.30;99.90;;;;;;7375654;19;20020;-69
2023/12/20 05:09:59;;;;;;;1.10;0.98;;;5.40;99.90;;;;;;7376302;19;20011;-69
2023/12/20 05:12:29;;;;;;;1.25;1.02;;;5.40;99.90;;;;;;7376667;19;20518;-68
2023/12/20 05:14:59;;;;;;;2.92;1.00;;;5.30;99.90;;;;;;7375590;19;20460;-68
2023/12/20 05:17:29;;;;;;;1.10;1.00;;;5.40;99.90;;;;;;7375348;19;20010;-70
2023/12/20 05:19:59;;;;;;;1.60;1.40;;;5.40;99.90;;;;;;7375285;19;20006;-70
2023/12/20 05:22:32;;;;;;;1.25;1.15;;;5.40;99.90;;;;;;7376066;19;20031;-70
2023/12/20 05:25:03;;;;;;;1.80;1.63;;;5.40;99.90;;;;;;7374602;19;20014;-70
2023/12/20 05:27:33;;;;;;;1.85;1.60;;;5.40;99.90;;;;;;7374282;19;20019;-68
2023/12/20 05:30:04;;;;;;;2.47;2.00;;;5.40;99.90;;;;;;7375711;19;20452;-68
2023/12/20 05:32:34;;;;;;;2.40;2.08;;;5.40;99.90;;;;;;7374844;19;20015;-68
2023/12/20 05:35:04;;;;;;;3.00;2.70;;;5.40;99.90;;;;;;7375549;19;20090;-68
2023/12/20 05:37:37;;;;;;;2.95;2.65;;;5.40;99.90;;;;;;7374732;19;20051;-68
2023/12/20 05:40:10;;;;;;;3.33;2.90;;;5.40;99.90;;;;;;7375585;19;20547;-68
2023/12/20 05:42:40;;;;;;;3.22;2.92;;;5.40;99.90;;;;;;7375024;19;20014;-69
2023/12/20 05:45:11;;;;;;;3.60;3.30;;;5.40;99.90;;;;;;7372815;19;20032;-68
2023/12/20 05:47:41;;;;;;;4.10;3.70;;;5.40;99.90;;;;;;7375312;19;20021;-68
2023/12/20 05:50:12;;;;;;;4.20;3.75;;;5.40;99.90;;;;;;7374887;19;20400;-70
2023/12/20 05:52:44;;;;;;;3.65;3.33;;;5.40;99.90;;;;;;7376001;19;20010;-68
2023/12/20 05:55:14;;;;;;;3.30;3.00;;;5.40;99.90;;;;;;7379899;19;20018;-70
2023/12/20 05:57:45;;;;;;;4.97;3.60;;;5.40;99.90;;;;;;7379958;19;20018;-69
2023/12/20 06:00:16;;;;;;;3.78;3.20;;;5.40;99.90;;;;;;7381427;19;20112;-69
2023/12/20 06:02:47;;;;;;;4.07;3.45;;;5.40;99.90;;;;;;7380383;19;20105;-69
2023/12/20 06:05:17;;;;;;;4.20;3.80;;;5.50;99.90;;;;;;7380829;19;20094;-70
2023/12/20 06:07:50;;;;;;;5.55;4.03;;;5.50;99.90;;;;;;7379904;19;20093;-69
2023/12/20 06:10:21;;;;;;;3.65;3.28;;;5.50;99.90;;;;;;7380766;19;20644;-68
2023/12/20 06:12:52;;;;;;;3.72;3.22;;;5.50;99.90;;;;;;7382660;19;20014;-69
2023/12/20 06:15:23;;;;;;;4.65;3.13;;;5.50;99.90;;;;;;7381764;19;20014;-67
2023/12/20 06:17:53;;;;;;;3.40;3.10;;;5.50;99.90;;;;;;7381699;19;20017;-68
2023/12/20 06:20:23;;;;;;;4.68;3.92;;;5.50;99.90;;;;;;7379739;19;20119;-67
2023/12/20 06:22:55;;;;;;;5.63;3.97;;;5.50;99.90;;;;;;7381057;19;20011;-68
2023/12/20 06:25:25;;;;;;;5.03;3.63;;;5.50;99.90;;;;;;7380200;19;20010;-68
2023/12/20 06:27:55;;;;;;;4.45;3.70;;;5.50;99.90;;;;;;7377697;19;20010;-67
2023/12/20 06:30:27;;;;;;;5.93;3.90;;;5.50;99.90;;;;;;7377948;19;20368;-68
2023/12/20 06:32:57;;;;;;;4.88;4.35;;;5.50;99.90;;;;;;7379177;19;20041;-69
2023/12/20 06:35:28;;;;;;;6.78;4.68;;;5.50;99.90;;;;;;7379605;19;20022;-68
2023/12/20 06:38:01;;;;;;;6.38;5.55;;;5.50;99.90;;;;;;7379366;19;20523;-67
2023/12/20 06:40:31;;;;;;;6.95;5.35;;;5.50;99.90;;;;;;7379444;19;20065;-68
2023/12/20 06:43:01;;;;;;;5.63;5.00;;;5.50;99.90;;;;;;7379722;19;20357;-68
2023/12/20 06:45:45;;;;;;;5.55;5.05;;;5.50;99.90;;;;;;7379785;19;20011;-68
2023/12/20 06:48:15;;;;;;;6.28;5.68;;;5.60;99.90;;;;;;7378632;19;20114;-69
2023/12/20 06:50:45;;;;;;;7.28;5.82;;;5.60;99.90;;;;;;7379872;19;20389;-68
2023/12/20 06:53:18;;;;;;;6.53;5.82;;;5.60;99.90;;;;;;7380078;19;20010;-69
2023/12/20 06:55:48;;;;;;;7.65;6.40;;;5.60;99.90;;;;;;7379202;19;20094;-69
2023/12/20 06:58:19;;;;;;;6.93;6.15;;;5.60;99.90;;;;;;7381073;19;20037;-68
2023/12/20 07:00:49;;;;;;;6.88;6.13;;;5.60;99.90;;;;;;7381154;19;20026;-68
2023/12/20 07:03:19;;;;;;;6.28;5.68;;;5.60;99.90;;;;;;7380209;19;20094;-69
2023/12/20 07:05:49;;;;;;;7.38;6.68;;;5.60;99.90;;;;;;7379433;19;20030;-69
2023/12/20 07:08:22;;;;;;;11.75;7.75;;;5.60;99.90;;;;;;7378905;19;20094;-69
2023/12/20 07:10:52;;;;;;;7.50;6.78;;;5.60;99.90;;;;;;7380744;19;20452;-69
2023/12/20 07:13:22;;;;;;;7.53;6.40;;;5.60;99.90;;;;;;7380460;19;20031;-69
2023/12/20 07:15:52;;;;;;;7.68;6.55;;;5.60;99.90;;;;;;7378277;19;20020;-69
2023/12/20 07:18:22;;;;;;;8.48;6.85;;;5.60;99.90;;;;;;7378705;19;20006;-67
2023/12/20 07:20:52;;;;;;;7.97;7.18;;;5.60;99.90;;;;;;7378173;19;20344;-68
2023/12/20 07:23:25;;;;;;;8.77;7.72;;;5.60;99.90;;;;;;7379340;19;20015;-70
2023/12/20 07:25:55;;;;;;;9.60;7.97;;;5.60;99.90;;;;;;7382209;19;20491;-69
2023/12/20 07:28:25;;;;;;;9.80;8.02;;;5.60;99.90;;;;;;7379884;19;20496;-68
2023/12/20 07:30:55;;;;;;;9.23;7.85;;;5.50;99.90;;;;;;7379189;19;20007;-68
2023/12/20 07:33:25;;;;;;;10.07;8.07;;;5.50;99.90;;;;;;7376089;19;20487;-68
2023/12/20 07:35:55;;;;;;;9.18;8.02;;;5.50;99.90;;;;;;7380143;19;20010;-68
2023/12/20 07:38:28;;;;;;;9.43;7.82;;;5.50;99.90;;;;;;7380209;19;20417;-68
2023/12/20 07:40:58;;;;;;;9.50;8.07;;;5.50;99.90;;;;;;7379201;19;20014;-68
2023/12/20 07:43:28;;;;;;;8.32;7.05;;;5.40;99.90;;;;;;7380201;19;20501;-68
2023/12/20 07:45:58;;;;;;;9.50;7.53;;;5.40;99.90;;;;;;7379627;19;20010;-68
2023/12/20 07:48:28;;;;;;;8.40;7.25;;;5.40;99.90;;;;;;7378725;19;20033;-68
2023/12/20 07:50:58;;;;;;;8.57;6.85;;;5.40;99.90;;;;;;7379122;19;20014;-69
2023/12/20 07:53:31;;;;;;;8.93;7.40;;;5.40;99.90;;;;;;7379722;19;20025;-68
2023/12/20 07:56:01;;;;;;;8.75;7.13;;;5.30;99.90;;;;;;7377409;19;20017;-67
2023/12/20 07:58:32;;;;;;;7.88;7.07;;;5.20;99.90;;;;;;7375562;19;20339;-68
2023/12/20 08:01:20;;;;;;;8.10;7.10;;;5.20;99.90;;;;;;7379059;19;20044;-69
2023/12/20 08:03:52;;;;;;;7.47;6.22;;;5.20;99.90;;;;;;7378349;19;20041;-69
2023/12/20 08:06:24;;;;;;;7.22;6.38;;;5.20;99.90;;;;;;7379313;19;20014;-70
2023/12/20 08:08:56;;;;;;;7.22;6.53;;;5.10;99.90;;;;;;7378418;19;20466;-69
2023/12/20 08:11:35;;;;;;;7.07;5.97;;;5.00;99.90;;;;;;7377796;19;20549;-69
2023/12/20 08:14:05;;;;;;;9.93;6.35;;;5.00;99.90;;;;;;7377441;19;20006;-69
2023/12/20 08:16:35;;;;;;;6.85;6.05;;;5.00;99.90;;;;;;7375083;19;20475;-69
2023/12/20 08:19:05;;;;;;;7.25;5.72;;;5.00;99.90;;;;;;7377515;19;20123;-68
2023/12/20 08:21:35;;;;;;;7.70;5.80;;;5.10;99.90;;;;;;7379245;19;20018;-69
2023/12/20 08:24:11;;;;;;;9.02;6.00;;;5.10;95.20;;;;;;7379474;19;20406;-69
2023/12/20 08:26:41;;;;;;;6.07;5.45;;;5.10;66.00;;;;;;7378845;19;20025;-68
2023/12/20 08:29:11;;;;;;;6.13;5.47;;;5.10;62.50;;;;;;7377273;19;20006;-69
2023/12/20 08:31:41;;;;;;;8.60;6.80;;;5.10;56.00;;;;;;7378086;19;20017;-69
2023/12/20 08:34:12;;;;;;;7.28;6.13;;;5.20;61.20;;;;;;7376057;19;20054;-68
2023/12/20 08:36:42;;;;;;;8.65;5.72;;;5.20;59.70;;;;;;7376701;19;20084;-69
2023/12/20 08:39:15;;;;;;;8.27;6.38;;;5.20;64.30;;;;;;7374903;19;20035;-68
2023/12/20 08:41:45;;;;;;;9.98;5.60;;;5.20;60.30;;;;;;7375408;19;20083;-69
2023/12/20 08:44:15;;;;;;;6.63;5.13;;;5.20;47.80;;;;;;7374924;19;20682;-69
2023/12/20 08:46:46;;;;;;;6.45;5.32;;;5.20;45.70;;;;;;7374721;19;20018;-68
2023/12/20 08:49:16;;;;;;;6.20;5.15;;;5.20;44.10;;;;;;7373415;19;20017;-69
2023/12/20 08:51:47;;;;;;;7.18;5.60;;;5.30;46.10;;;;;;7375543;19;20006;-69
2023/12/20 08:54:19;;;;;;;6.53;5.32;;;5.30;46.70;;;;;;7375490;19;20007;-69
2023/12/20 08:56:49;;;;;;;6.63;5.05;;;5.30;36.00;;;;;;7375125;19;20086;-69
2023/12/20 08:59:20;;;;;;;7.22;5.25;;;5.40;29.00;;;;;;7374675;19;20010;-68
2023/12/20 09:01:54;;;;;;;9.63;5.65;;;5.40;26.90;;;;;;7375692;19;20014;-69
2023/12/20 09:04:24;;;;;;;6.05;5.20;;;5.40;26.80;;;;;;7375179;19;20026;-68
2023/12/20 09:06:54;;;;;;;14.82;5.95;;;5.40;24.80;;;;;;7374321;19;20010;-68
2023/12/20 09:09:27;;;;;;;11.43;5.88;;;5.50;20.90;;;;;;7374237;19;20006;-68
2023/12/20 09:11:57;;;;;;;10.73;6.35;;;5.50;18.40;;;;;;7374306;19;24025;-69
2023/12/20 09:14:27;;;;;;;13.48;8.45;;;5.60;17.50;;;;;;7374939;19;25502;-68
2023/12/20 09:16:57;;;;;;;7.63;5.03;;;5.80;9.50;;;;;;7373604;19;23900;-70
2023/12/20 09:19:27;;;;;;;5.18;4.20;;;5.70;1.00;;;;;;7373726;19;20052;-68
2023/12/20 09:21:57;;;;;;;6.15;5.38;;;5.70;1.00;;;;;;7374964;19;20102;-69
2023/12/20 09:24:29;;;;;;;6.15;3.83;;;5.70;1.00;;;;;;7373395;19;20034;-68
2023/12/20 09:26:59;;;;;;;5.97;4.45;;;5.70;1.00;;;;;;7372830;19;20014;-69
2023/12/20 09:29:30;;;;;;;8.77;4.47;;;5.80;1.00;;;;;;7377668;19;20382;-71
2023/12/20 09:31:59;;;;;;;5.68;3.40;;;5.80;1.00;;;;;;7382197;19;20034;-69
2023/12/20 09:34:30;;;;;;;7.07;3.67;;;5.80;1.00;;;;;;7381262;19;20108;-69
2023/12/20 09:37:00;;;;;;;7.47;3.58;;;5.90;1.00;;;;;;7380767;19;20369;-68
2023/12/20 09:39:32;;;;;;;8.10;3.15;;;5.90;1.00;;;;;;7380891;19;20503;-69
2023/12/20 09:42:04;;;;;;;7.10;2.90;;;6.00;1.00;;;;;;7379994;19;20031;-69
2023/12/20 09:44:35;;;;;;;5.00;2.70;;;6.00;1.00;;;;;;7380802;19;20013;-69
2023/12/20 09:47:06;;;;;;;4.65;2.33;;;6.00;1.00;;;;;;7376943;19;20015;-68
2023/12/20 09:49:39;;;;;;;8.65;2.88;;;6.00;1.00;;;;;;7380868;19;20029;-68
2023/12/20 09:52:12;;;;;;;5.78;2.42;;;6.10;1.00;;;;;;7377796;19;20006;-68
2023/12/20 09:54:46;;;;;;;5.43;2.42;;;6.20;1.00;;;;;;7379426;19;20011;-67
2023/12/20 09:57:16;;;;;;;4.78;1.90;;;6.20;1.00;;;;;;7379075;19;20025;-69
2023/12/20 09:59:46;;;;;;;6.88;2.65;;;6.20;1.00;;;;;;7380109;19;20013;-69
2023/12/20 10:02:17;;;;;;;4.10;1.70;;;6.20;1.00;;;;;;7379772;19;20011;-68
2023/12/20 10:04:50;;;;;;;6.75;2.30;;;6.20;1.00;;;;;;7379575;19;20010;-69
2023/12/20 10:07:20;;;;;;;8.05;2.08;;;6.20;1.00;;;;;;7376719;19;20491;-68
2023/12/20 10:09:57;;;;;;;4.50;2.30;;;6.20;1.00;;;;;;7379123;19;20013;-68
2023/12/20 10:12:27;;;;;;;6.90;2.25;;;6.30;1.00;;;;;;7379972;19;20035;-68
2023/12/20 10:14:57;;;;;;;7.38;2.80;;;6.20;1.00;;;;;;7379165;19;20041;-68
2023/12/20 10:17:30;;;;;;;7.18;3.17;;;6.20;1.00;;;;;;7378225;19;20135;-68
2023/12/20 10:20:00;;;;;;;4.13;2.42;;;6.30;1.00;;;;;;7378839;19;20002;-68
2023/12/20 10:22:31;;;;;;;5.57;2.30;;;6.20;1.00;;;;;;7380052;19;20368;-68
2023/12/20 10:25:03;;;;;;;8.65;2.40;;;6.30;1.00;;;;;;7377379;19;20482;-69
2023/12/20 10:27:34;;;;;;;6.68;1.98;;;6.40;1.00;;;;;;7376443;19;20039;-68
2023/12/20 10:30:04;;;;;;;5.53;2.33;;;6.30;1.00;;;;;;7378779;19;20047;-68
2023/12/20 10:32:34;;;;;;;8.02;2.40;;;6.30;1.00;;;;;;7378322;19;20014;-68
2023/12/20 10:35:04;;;;;;;5.47;2.03;;;6.40;1.00;;;;;;7378087;19;20022;-68
2023/12/20 10:37:38;;;;;;;6.20;2.03;;;6.50;1.00;;;;;;7378243;19;20075;-67
2023/12/20 10:40:12;;;;;;;4.95;2.40;;;6.60;1.00;;;;;;7378907;19;20009;-68
2023/12/20 10:42:43;;;;;;;5.28;2.10;;;6.60;1.00;;;;;;7375666;19;20003;-68
2023/12/20 10:45:13;;;;;;;5.57;1.92;;;6.80;1.00;;;;;;7379930;19;20057;-68
2023/12/20 10:47:44;;;;;;;3.70;2.03;;;6.70;1.00;;;;;;7378768;19;20021;-68
2023/12/20 10:50:15;;;;;;;8.68;2.58;;;6.60;1.00;;;;;;7376846;19;20007;-69
2023/12/20 10:52:46;;;;;;;5.15;1.83;;;6.60;1.00;;;;;;7379481;19;20011;-68
2023/12/20 10:55:19;;;;;;;6.65;2.08;;;6.50;1.00;;;;;;7380237;19;20504;-68
2023/12/20 10:57:52;;;;;;;8.00;2.28;;;6.60;1.00;;;;;;7379888;19;20389;-69
2023/12/20 11:00:25;;;;;;;5.72;2.00;;;6.80;1.00;;;;;;7378052;19;20793;-69
2023/12/20 11:02:57;;;;;;;7.28;2.17;;;6.70;1.00;;;;;;7378253;19;20086;-68
2023/12/20 11:05:37;;;;;;;4.93;1.95;;;6.70;1.00;;;;;;7377611;19;20625;-69
2023/12/20 11:08:18;;;;;;;5.90;1.85;;;6.70;1.00;;;;;;7377342;19;20014;-69
2023/12/20 11:10:58;;;;;;;5.53;1.50;;;6.60;1.00;;;;;;7374293;19;20610;-69
2023/12/20 11:13:33;;;;;;;7.82;1.65;;;6.40;1.00;;;;;;7378216;19;20174;-67
2023/12/20 11:16:04;;;;;;;5.40;2.00;;;6.50;1.00;;;;;;7377479;19;20006;-68
2023/12/20 11:18:35;;;;;;;6.50;1.67;;;6.50;1.00;;;;;;7376447;19;20006;-68
2023/12/20 11:21:07;;;;;;;3.72;1.52;;;6.60;1.00;;;;;;7378372;19;20049;-68
2023/12/20 11:23:38;;;;;;;3.22;1.73;;;6.60;1.00;;;;;;7377762;19;20206;-68
2023/12/20 11:26:10;;;;;;;5.18;2.00;;;6.60;1.00;;;;;;7377438;19;20014;-68
2023/12/20 11:28:40;;;;;;;5.10;1.60;;;6.60;1.00;;;;;;7377490;19;20037;-68
2023/12/20 11:31:10;;;;;;;5.68;2.20;;;6.40;1.00;;;;;;7377135;19;20071;-68
2023/12/20 11:33:41;;;;;;;5.45;2.10;;;6.40;1.00;;;;;;7377930;19;20022;-69
2023/12/20 11:36:17;;;;;;;7.78;2.20;;;6.30;1.00;;;;;;7378599;19;20033;-68
2023/12/20 11:39:05;;;;;;;8.65;2.50;;;6.40;1.00;;;;;;7374871;19;20383;-68
2023/12/20 11:41:39;;;;;;;5.30;2.50;;;6.30;1.00;;;;;;6866759;19;2004705;-68
2023/12/20 11:44:11;;;;;;;8.80;2.72;;;6.30;1.00;;;;;;7377551;19;20015;-69
2023/12/20 11:46:41;;;;;;;5.68;2.60;;;6.20;1.00;;;;;;7378299;19;20027;-68
2023/12/20 11:49:11;;;;;;;6.13;2.53;;;6.20;1.00;;;;;;7376024;19;20003;-68
2023/12/20 11:51:44;;;;;;;6.00;2.80;;;6.10;1.00;;;;;;7373795;19;20010;-68
2023/12/20 11:54:17;;;;;;;9.93;2.90;;;6.10;1.00;;;;;;7375540;19;20006;-68
2023/12/20 11:56:50;;;;;;;6.70;2.55;;;6.20;1.00;;;;;;7377713;19;20016;-68
2023/12/20 11:59:20;;;;;;;7.95;2.90;;;6.10;1.00;;;;;;7377933;19;20010;-69
2023/12/20 12:01:56;;;;;;;5.32;2.60;;;6.10;1.00;;;;;;7377801;19;20017;-68
2023/12/20 12:04:26;;;;;;;5.53;2.53;;;6.20;1.00;;;;;;7371856;19;20011;-69
2023/12/20 12:06:56;;;;;;;6.50;3.28;;;6.40;1.00;;;;;;7375172;19;20352;-67
2023/12/20 12:09:26;;;;;;;8.27;3.03;;;6.30;1.00;;;;;;7376697;19;20010;-68
2023/12/20 12:11:59;;;;;;;7.60;3.15;;;6.40;1.00;;;;;;7379567;19;20463;-69
2023/12/20 12:14:29;;;;;;;6.80;2.40;;;6.40;1.00;;;;;;7376958;19;20018;-69
2023/12/20 12:16:59;;;;;;;9.40;2.63;;;6.50;1.00;;;;;;7375823;19;20364;-68
2023/12/20 12:19:34;;;;;;;7.10;2.63;;;6.50;1.00;;;;;;7376053;19;20021;-69
2023/12/20 12:22:10;;;;;;;9.57;5.28;;;6.50;1.00;;;;;;7375582;19;20063;-70
2023/12/20 12:24:43;;;;;;;10.93;4.15;;;6.70;1.00;;;;;;7376317;19;20061;-68
2023/12/20 12:27:16;;;;;;;5.40;2.40;;;6.70;1.00;;;;;;7375210;19;20023;-69
2023/12/20 12:30:07;;;;;;;7.10;2.47;;;6.60;1.00;;;;;;7376575;19;20380;-68
2023/12/20 12:32:37;;;;;;;9.75;2.70;;;6.60;1.00;;;;;;6865989;19;2004820;-70
2023/12/20 12:35:08;;;;;;;7.57;2.35;;;6.60;1.00;;;;;;7375924;19;20055;-69
2023/12/20 12:37:41;;;;;;;4.15;2.30;;;6.70;1.00;;;;;;7376291;19;20026;-69
2023/12/20 12:40:13;;;;;;;7.63;2.15;;;6.50;1.00;;;;;;7375742;19;20043;-69
2023/12/20 12:42:47;;;;;;;6.30;2.28;;;6.60;1.00;;;;;;7376049;19;20011;-69
2023/12/20 12:45:18;;;;;;;6.88;2.95;;;6.50;1.00;;;;;;7374614;19;20007;-68
2023/12/20 12:47:48;;;;;;;8.50;3.00;;;6.60;1.00;;;;;;7375898;19;20032;-67
2023/12/20 12:50:19;;;;;;;6.07;2.70;;;6.60;1.00;;;;;;7375699;19;20356;-68
2023/12/20 12:52:49;;;;;;;5.95;2.88;;;6.70;1.00;;;;;;7376544;19;20002;-68
2023/12/20 12:55:19;;;;;;;7.40;2.92;;;6.60;1.00;;;;;;7375527;19;20006;-68
2023/12/20 12:57:52;;;;;;;5.00;3.00;;;6.60;1.00;;;;;;7375066;19;20007;-69
2023/12/20 13:00:22;;;;;;;4.93;2.50;;;6.60;1.00;;;;;;7375581;19;20007;-68
2023/12/20 13:02:52;;;;;;;5.85;2.22;;;6.50;1.00;;;;;;7377294;19;20015;-68
2023/12/20 13:05:22;;;;;;;5.88;2.10;;;6.50;1.00;;;;;;7381544;19;20011;-69
2023/12/20 13:07:53;;;;;;;5.80;2.53;;;6.70;1.00;;;;;;7381760;19;20014;-68
2023/12/20 13:10:23;;;;;;;6.63;2.20;;;6.70;1.00;;;;;;7383308;19;20041;-69
2023/12/20 13:12:56;;;;;;;5.45;2.53;;;6.80;1.00;;;;;;7383190;19;20038;-69
2023/12/20 13:15:26;;;;;;;6.40;2.08;;;6.90;1.00;;;;;;7381104;19;20089;-69
2023/12/20 13:17:56;;;;;;;8.05;2.03;;;6.80;1.00;;;;;;7378167;19;20468;-68
2023/12/20 13:20:26;;;;;;;6.38;1.90;;;6.70;1.00;;;;;;7382938;19;20035;-69